createdAt,value
2022-10-10T00:01:22.494Z,17.87
2022-10-10T00:03:49.765Z,17.33
2022-10-10T00:06:17.383Z,21.93
2022-10-10T00:08:45.999Z,13.53
2022-10-10T00:11:14.863Z,21.23
2022-10-10T00:13:42.818Z,12.90
2022-10-10T00:16:11.098Z,11.77
2022-10-10T00:18:38.965Z,17.00
2022-10-10T00:21:06.246Z,10.87
2022-10-10T00:23:33.292Z,16.93
2022-10-10T00:26:01.375Z,9.10
2022-10-10T00:28:30.490Z,8.83
2022-10-10T00:30:57.608Z,9.90
2022-10-10T00:33:24.540Z,8.50
2022-10-10T00:35:51.520Z,8.23
2022-10-10T00:38:18.515Z,12.53
2022-10-10T00:40:51.700Z,10.33
2022-10-10T00:43:19.584Z,10.57
2022-10-10T00:45:48.289Z,11.43
2022-10-10T00:48:24.642Z,13.63
2022-10-10T00:51:03.917Z,14.23
2022-10-10T00:53:42.752Z,10.73
2022-10-10T00:56:12.330Z,14.83
2022-10-10T00:58:43.133Z,18.23
2022-10-10T01:01:10.338Z,24.57
2022-10-10T01:03:37.342Z,19.43
2022-10-10T01:06:05.423Z,21.93
2022-10-10T01:08:33.340Z,14.63
2022-10-10T01:11:37.452Z,19.03
2022-10-10T01:14:30.650Z,13.07
2022-10-10T01:17:29.601Z,12.40
2022-10-10T01:20:19.758Z,14.27
2022-10-10T01:23:17.681Z,14.37
2022-10-10T01:26:09.286Z,17.80
2022-10-10T01:28:53.601Z,22.13
2022-10-10T01:31:24.336Z,19.73
2022-10-10T01:34:06.095Z,16.43
2022-10-10T01:36:37.625Z,13.40
2022-10-10T01:39:41.115Z,9.53
2022-10-10T01:42:37.928Z,15.63
2022-10-10T01:45:05.909Z,13.77
2022-10-10T01:47:32.882Z,11.43
2022-10-10T01:50:04.768Z,10.03
2022-10-10T01:52:43.523Z,12.07
2022-10-10T01:55:45.554Z,11.00
2022-10-10T01:58:39.522Z,11.20
2022-10-10T02:01:06.452Z,7.83
2022-10-10T02:03:40.067Z,8.67
2022-10-10T02:06:13.119Z,6.67
2022-10-10T02:08:52.037Z,8.90
2022-10-10T02:11:19.193Z,12.40
2022-10-10T02:13:51.122Z,7.80
2022-10-10T02:16:46.114Z,6.10
2022-10-10T02:19:18.085Z,14.57
2022-10-10T02:21:48.201Z,9.57
2022-10-10T02:24:16.284Z,9.60
2022-10-10T02:26:48.098Z,11.50
2022-10-10T02:29:22.984Z,8.18
2022-10-10T02:32:19.700Z,9.57
2022-10-10T02:34:50.526Z,7.10
2022-10-10T02:37:18.747Z,9.93
2022-10-10T02:39:50.547Z,13.53
2022-10-10T02:42:21.397Z,11.83
2022-10-10T02:44:49.361Z,7.57
2022-10-10T02:47:16.885Z,9.60
2022-10-10T02:49:44.366Z,7.27
2022-10-10T02:52:14.615Z,12.17
2022-10-10T02:54:41.725Z,10.60
2022-10-10T02:57:08.772Z,9.35
2022-10-10T02:59:36.078Z,7.28
2022-10-10T03:02:03.094Z,12.90
2022-10-10T03:04:30.036Z,7.20
2022-10-10T03:06:56.967Z,11.45
2022-10-10T03:09:24.021Z,9.68
2022-10-10T03:11:51.164Z,8.77
2022-10-10T03:14:18.267Z,9.27
2022-10-10T03:16:46.418Z,10.40
2022-10-10T03:19:13.432Z,13.57
2022-10-10T03:21:40.387Z,15.18
2022-10-10T03:24:07.347Z,9.93
2022-10-10T03:26:35.379Z,14.90
2022-10-10T03:29:03.763Z,18.80
2022-10-10T03:31:31.195Z,19.67
2022-10-10T03:33:58.694Z,16.93
2022-10-10T03:36:25.895Z,12.80
2022-10-10T03:38:53.183Z,19.67
2022-10-10T03:41:20.299Z,17.23
2022-10-10T03:43:47.373Z,13.23
2022-10-10T03:46:16.368Z,11.47
2022-10-10T03:48:44.033Z,19.37
2022-10-10T03:51:11.290Z,21.27
2022-10-10T03:53:38.477Z,23.10
2022-10-10T03:56:06.121Z,21.17
2022-10-10T03:58:33.543Z,17.13
2022-10-10T04:01:02.427Z,18.23
2022-10-10T04:03:30.107Z,18.38
2022-10-10T04:05:57.538Z,19.17
2022-10-10T04:08:25.479Z,17.10
2022-10-10T04:10:54.622Z,15.50
2022-10-10T04:13:22.740Z,14.50
2022-10-10T04:15:54.285Z,15.32
2022-10-10T04:18:22.642Z,20.63
2022-10-10T04:20:49.785Z,20.60
2022-10-10T04:23:16.966Z,25.80
2022-10-10T04:25:44.388Z,20.90
2022-10-10T04:28:12.725Z,23.20
2022-10-10T04:30:39.790Z,20.57
2022-10-10T04:33:07.109Z,22.83
2022-10-10T04:35:34.275Z,21.33
2022-10-10T04:38:01.238Z,19.70
2022-10-10T04:40:29.309Z,20.73
2022-10-10T04:42:56.459Z,28.97
2022-10-10T04:45:26.749Z,27.40
2022-10-10T04:47:57.027Z,26.87
2022-10-10T04:50:24.716Z,24.03
2022-10-10T04:52:52.031Z,23.47
2022-10-10T04:55:19.427Z,24.43
2022-10-10T04:57:46.351Z,20.90
2022-10-10T05:00:13.726Z,19.30
2022-10-10T05:02:40.840Z,18.03
2022-10-10T05:05:09.652Z,18.63
2022-10-10T05:07:37.097Z,19.70
2022-10-10T05:10:06.185Z,19.03
2022-10-10T05:12:33.690Z,23.57
2022-10-10T05:15:00.771Z,26.10
2022-10-10T05:17:27.899Z,23.80
2022-10-10T05:19:55.140Z,24.20
2022-10-10T05:22:22.171Z,25.27
2022-10-10T05:24:49.167Z,22.43
2022-10-10T05:27:16.138Z,21.17
2022-10-10T05:29:43.085Z,15.93
2022-10-10T05:32:10.737Z,14.53
2022-10-10T05:34:38.431Z,14.50
2022-10-10T05:37:05.386Z,14.87
2022-10-10T05:39:32.476Z,20.50
2022-10-10T05:41:59.609Z,16.47
2022-10-10T05:44:26.800Z,22.45
2022-10-10T05:46:53.795Z,12.97
2022-10-10T05:49:21.318Z,18.43
2022-10-10T05:51:48.268Z,16.73
2022-10-10T05:54:15.263Z,16.47
2022-10-10T05:56:42.267Z,16.20
2022-10-10T05:59:09.299Z,13.87
2022-10-10T06:01:37.029Z,17.30
2022-10-10T06:04:04.220Z,19.97
2022-10-10T06:06:31.599Z,15.20
2022-10-10T06:08:59.636Z,17.93
2022-10-10T06:11:26.782Z,18.52
2022-10-10T06:13:57.353Z,19.48
2022-10-10T06:16:26.641Z,19.50
2022-10-10T06:18:54.181Z,19.13
2022-10-10T06:21:21.352Z,25.90
2022-10-10T06:23:48.572Z,17.70
2022-10-10T06:26:15.917Z,16.60
2022-10-10T06:28:43.089Z,19.25
2022-10-10T06:31:13.045Z,20.30
2022-10-10T06:33:43.308Z,17.25
2022-10-10T06:36:11.620Z,13.35
2022-10-10T06:38:40.464Z,15.18
2022-10-10T06:41:07.699Z,13.73
2022-10-10T06:43:35.284Z,8.40
2022-10-10T06:46:02.779Z,10.52
2022-10-10T06:48:31.364Z,11.13
2022-10-10T06:51:00.613Z,4.40
2022-10-10T06:53:28.322Z,7.40
2022-10-10T06:55:56.280Z,9.98
2022-10-10T06:58:24.721Z,16.60
2022-10-10T07:00:57.248Z,16.40
2022-10-10T07:03:24.561Z,13.82
2022-10-10T07:05:57.634Z,18.20
2022-10-10T07:08:25.529Z,14.13
2022-10-10T07:10:53.042Z,15.93
2022-10-10T07:13:21.313Z,14.02
2022-10-10T07:15:48.618Z,19.65
2022-10-10T07:18:17.995Z,15.55
2022-10-10T07:20:45.119Z,14.95
2022-10-10T07:23:12.235Z,10.60
2022-10-10T07:25:40.867Z,11.48
2022-10-10T07:28:08.294Z,13.48
2022-10-10T07:30:43.891Z,10.45
2022-10-10T07:33:12.706Z,6.47
2022-10-10T07:35:39.766Z,11.13
2022-10-10T07:38:07.420Z,5.93
2022-10-10T07:40:34.593Z,6.07
2022-10-10T07:43:01.644Z,6.38
2022-10-10T07:45:28.656Z,4.07
2022-10-10T07:47:55.800Z,5.85
2022-10-10T07:50:25.214Z,5.40
2022-10-10T07:52:52.185Z,7.68
2022-10-10T07:55:19.294Z,5.20
2022-10-10T07:57:53.072Z,5.63
2022-10-10T08:00:20.710Z,4.95
2022-10-10T08:02:47.658Z,5.93
2022-10-10T08:05:14.705Z,8.55
2022-10-10T08:07:41.676Z,6.20
2022-10-10T08:10:09.926Z,3.17
2022-10-10T08:12:37.002Z,5.43
2022-10-10T08:15:05.820Z,7.60
2022-10-10T08:17:33.076Z,8.30
2022-10-10T08:20:00.023Z,3.45
2022-10-10T08:22:26.986Z,9.25
2022-10-10T08:24:54.006Z,3.30
2022-10-10T08:27:21.038Z,9.73
2022-10-10T08:29:48.046Z,6.60
2022-10-10T08:32:15.172Z,8.52
2022-10-10T08:34:42.202Z,6.03
2022-10-10T08:37:09.196Z,8.85
2022-10-10T08:39:36.155Z,8.43
2022-10-10T08:42:03.830Z,6.15
2022-10-10T08:44:40.125Z,7.63
2022-10-10T08:47:10.036Z,9.10
2022-10-10T08:49:58.486Z,4.85
2022-10-10T08:52:28.463Z,8.93
2022-10-10T08:54:58.594Z,7.28
2022-10-10T08:57:30.752Z,7.45
2022-10-10T09:00:06.049Z,6.53
2022-10-10T09:02:53.144Z,6.80
2022-10-10T09:05:49.796Z,10.32
2022-10-10T09:08:36.961Z,4.72
2022-10-10T09:11:22.702Z,4.53
2022-10-10T09:14:53.724Z,5.13
2022-10-10T09:17:57.433Z,4.65
2022-10-10T09:20:42.958Z,9.10
2022-10-10T09:23:28.694Z,9.32
2022-10-10T09:26:01.840Z,6.72
2022-10-10T09:28:39.345Z,12.13
2022-10-10T09:31:15.963Z,12.65
2022-10-10T09:33:55.678Z,15.50
2022-10-10T09:36:30.381Z,13.10
2022-10-10T09:39:06.772Z,8.70
2022-10-10T09:41:41.373Z,9.73
2022-10-10T09:44:12.281Z,11.40
2022-10-10T09:46:39.289Z,6.47
2022-10-10T09:49:06.764Z,5.38
2022-10-10T09:51:34.267Z,11.55
2022-10-10T09:54:02.455Z,7.95
2022-10-10T09:56:38.854Z,5.97
2022-10-10T09:59:05.883Z,5.03
2022-10-10T10:01:33.109Z,10.32
2022-10-10T10:04:23.396Z,7.82
2022-10-10T10:07:06.322Z,5.28
2022-10-10T10:09:33.998Z,4.65
2022-10-10T10:12:01.332Z,5.90
2022-10-10T10:14:35.748Z,8.35
2022-10-10T10:17:12.135Z,5.35
2022-10-10T10:19:42.358Z,9.90
2022-10-10T10:22:32.917Z,9.07
2022-10-10T10:25:20.804Z,13.48
2022-10-10T10:27:47.793Z,6.82
2022-10-10T10:30:25.542Z,4.82
2022-10-10T10:33:21.737Z,6.00
2022-10-10T10:36:01.295Z,9.27
2022-10-10T10:39:05.301Z,16.63
2022-10-10T10:41:35.912Z,7.20
2022-10-10T10:44:09.277Z,7.50
2022-10-10T10:46:42.231Z,7.15
2022-10-10T10:49:24.748Z,11.40
2022-10-10T10:52:14.719Z,10.70
2022-10-10T10:54:50.653Z,12.38
2022-10-10T10:57:34.226Z,7.03
2022-10-10T11:00:41.203Z,8.43
2022-10-10T11:05:17.599Z,10.20
2022-10-10T11:07:20.724Z,9.05
2022-10-10T11:10:09.133Z,12.52
2022-10-10T11:12:39.104Z,7.75
2022-10-10T11:15:30.770Z,11.93
2022-10-10T11:18:33.444Z,14.55
2022-10-10T11:21:17.451Z,13.02
2022-10-10T11:23:51.196Z,8.25
2022-10-10T11:26:35.739Z,9.77
2022-10-10T11:29:24.950Z,9.50
2022-10-10T11:31:56.176Z,13.13
2022-10-10T11:34:41.209Z,12.52
2022-10-10T11:37:16.108Z,13.52
2022-10-10T11:40:05.084Z,9.82
2022-10-10T11:42:35.047Z,14.30
2022-10-10T11:45:14.352Z,17.00
2022-10-10T11:47:51.118Z,8.60
2022-10-10T11:50:30.880Z,8.07
2022-10-10T11:53:38.036Z,8.57
2022-10-10T11:56:14.731Z,8.95
2022-10-10T11:58:45.955Z,9.35
2022-10-10T12:01:24.184Z,8.55
2022-10-10T12:03:57.357Z,12.75
2022-10-10T12:06:44.557Z,10.52
2022-10-10T12:09:39.281Z,8.32
2022-10-10T12:12:15.512Z,11.02
2022-10-10T12:14:48.192Z,9.82
2022-10-10T12:17:21.555Z,8.55
2022-10-10T12:19:51.478Z,8.63
2022-10-10T12:22:36.571Z,8.35
2022-10-10T12:25:20.735Z,6.93
2022-10-10T12:28:06.359Z,12.68
2022-10-10T12:30:33.789Z,8.35
2022-10-10T12:33:00.809Z,8.57
2022-10-10T12:35:35.843Z,8.73
2022-10-10T12:38:06.177Z,11.90
2022-10-10T12:40:34.087Z,17.65
2022-10-10T12:43:26.123Z,13.02
2022-10-10T12:46:30.526Z,11.13
2022-10-10T12:49:02.055Z,7.05
2022-10-10T12:51:30.793Z,7.53
2022-10-10T12:54:00.983Z,10.48
2022-10-10T12:57:01.805Z,5.68
2022-10-10T12:59:29.111Z,4.85
2022-10-10T13:02:02.544Z,8.60
2022-10-10T13:04:30.103Z,8.63
2022-10-10T13:07:00.007Z,10.32
2022-10-10T13:09:34.875Z,5.88
2022-10-10T13:12:05.439Z,8.77
2022-10-10T13:14:45.125Z,9.60
2022-10-10T13:17:41.328Z,9.95
2022-10-10T13:20:26.503Z,10.77
2022-10-10T13:22:53.647Z,13.07
2022-10-10T13:25:20.766Z,7.65
2022-10-10T13:27:47.876Z,9.82
2022-10-10T13:30:22.530Z,7.22
2022-10-10T13:32:50.160Z,9.73
2022-10-10T13:35:23.277Z,12.60
2022-10-10T13:38:01.585Z,6.50
2022-10-10T13:40:28.900Z,10.60
2022-10-10T13:42:56.555Z,7.25
2022-10-10T13:45:27.842Z,7.57
2022-10-10T13:48:03.410Z,7.10
2022-10-10T13:50:36.583Z,10.38
2022-10-10T13:53:25.247Z,6.95
2022-10-10T13:56:23.234Z,6.38
2022-10-10T13:59:00.730Z,9.85
2022-10-10T14:01:35.813Z,20.15
2022-10-10T14:04:19.542Z,10.90
2022-10-10T14:07:20.813Z,8.57
2022-10-10T14:10:06.537Z,11.13
2022-10-10T14:12:52.192Z,11.77
2022-10-10T14:15:43.028Z,12.30
2022-10-10T14:18:20.383Z,11.27
2022-10-10T14:20:48.344Z,8.27
2022-10-10T14:23:16.069Z,12.07
2022-10-10T14:25:46.704Z,7.57
2022-10-10T14:28:19.825Z,12.63
2022-10-10T14:30:46.859Z,12.15
2022-10-10T14:33:16.828Z,8.38
2022-10-10T14:35:44.834Z,9.95
2022-10-10T14:38:12.739Z,11.52
2022-10-10T14:40:42.407Z,10.77
2022-10-10T14:43:09.638Z,8.63
2022-10-10T14:45:36.864Z,9.35
2022-10-10T14:48:04.063Z,8.18
2022-10-10T14:50:36.528Z,10.20
2022-10-10T14:53:04.291Z,9.18
2022-10-10T14:55:31.238Z,12.10
2022-10-10T14:57:58.231Z,9.05
2022-10-10T15:00:27.492Z,11.65
2022-10-10T15:02:54.845Z,14.65
2022-10-10T15:05:22.498Z,7.15
2022-10-10T15:07:53.635Z,13.45
2022-10-10T15:10:33.558Z,13.70
2022-10-10T15:13:01.840Z,16.02
2022-10-10T15:15:28.931Z,10.75
2022-10-10T15:17:58.183Z,13.70
2022-10-10T15:20:31.076Z,15.40
2022-10-10T15:23:04.507Z,22.30
2022-10-10T15:25:34.023Z,11.85
2022-10-10T15:28:02.626Z,8.40
2022-10-10T15:30:29.736Z,6.30
2022-10-10T15:32:56.688Z,7.22
2022-10-10T15:35:25.556Z,12.57
2022-10-10T15:37:52.876Z,12.75
2022-10-10T15:40:23.807Z,13.77
2022-10-10T15:42:51.214Z,19.50
2022-10-10T15:45:37.293Z,12.82
2022-10-10T15:48:06.116Z,8.25
2022-10-10T15:50:36.069Z,7.85
2022-10-10T15:53:03.041Z,7.05
2022-10-10T15:55:29.987Z,7.47
2022-10-10T15:57:56.943Z,7.95
2022-10-10T16:00:24.052Z,5.80
2022-10-10T16:02:51.235Z,9.23
2022-10-10T16:05:18.303Z,15.50
2022-10-10T16:07:48.312Z,9.95
2022-10-10T16:10:15.817Z,10.50
2022-10-10T16:12:42.939Z,8.32
2022-10-10T16:15:10.113Z,8.75
2022-10-10T16:17:37.065Z,9.63
2022-10-10T16:20:04.555Z,13.50
2022-10-10T16:22:31.592Z,9.10
2022-10-10T16:25:20.521Z,15.35
2022-10-10T16:27:45.497Z,10.77
2022-10-10T16:30:12.889Z,10.07
2022-10-10T16:32:42.646Z,13.05
2022-10-10T16:35:11.254Z,10.07
2022-10-10T16:37:39.078Z,7.95
2022-10-10T16:40:07.309Z,6.13
2022-10-10T16:42:34.517Z,8.25
2022-10-10T16:45:01.668Z,8.45
2022-10-10T16:47:28.810Z,7.95
2022-10-10T16:49:55.853Z,8.20
2022-10-10T16:52:22.848Z,7.20
2022-10-10T16:54:52.120Z,9.60
2022-10-10T16:57:19.746Z,10.43
2022-10-10T16:59:46.890Z,8.98
2022-10-10T17:02:14.126Z,6.10
2022-10-10T17:04:41.092Z,6.97
2022-10-10T17:07:08.302Z,10.20
2022-10-10T17:09:35.375Z,11.02
2022-10-10T17:12:02.416Z,6.20
2022-10-10T17:14:29.361Z,8.32
2022-10-10T17:17:13.054Z,9.43
2022-10-10T17:19:40.567Z,6.28
2022-10-10T17:22:07.640Z,6.68
2022-10-10T17:24:34.703Z,8.10
2022-10-10T17:27:01.650Z,6.30
2022-10-10T17:29:28.642Z,9.95
2022-10-10T17:31:55.652Z,9.00
2022-10-10T17:34:22.580Z,5.05
2022-10-10T17:36:49.515Z,12.80
2022-10-10T17:39:16.548Z,7.07
2022-10-10T17:41:45.798Z,10.18
2022-10-10T17:44:13.531Z,15.40
2022-10-10T17:46:41.321Z,11.15
2022-10-10T17:49:11.031Z,9.27
2022-10-10T17:51:40.074Z,8.35
2022-10-10T17:54:07.594Z,6.40
2022-10-10T17:56:35.343Z,7.47
2022-10-10T17:59:05.552Z,6.60
2022-10-10T18:01:33.519Z,9.43
2022-10-10T18:04:02.058Z,10.50
2022-10-10T18:06:30.005Z,6.50
2022-10-10T18:08:57.753Z,6.35
2022-10-10T18:11:28.140Z,10.35
2022-10-10T18:14:00.520Z,6.15
2022-10-10T18:16:30.703Z,5.82
2022-10-10T18:18:58.641Z,7.82
2022-10-10T18:21:26.137Z,8.73
2022-10-10T18:23:53.715Z,5.80
2022-10-10T18:26:23.316Z,7.13
2022-10-10T18:28:53.967Z,8.55
2022-10-10T18:31:33.433Z,15.23
2022-10-10T18:34:01.680Z,9.52
2022-10-10T18:36:31.650Z,12.40
2022-10-10T18:39:04.398Z,7.13
2022-10-10T18:41:34.453Z,8.30
2022-10-10T18:44:03.845Z,8.53
2022-10-10T18:46:31.165Z,8.77
2022-10-10T18:48:59.692Z,7.40
2022-10-10T18:51:29.666Z,6.40
2022-10-10T18:54:03.692Z,12.10
2022-10-10T18:56:32.493Z,7.88
2022-10-10T18:59:02.582Z,8.33
2022-10-10T19:01:36.536Z,7.90
2022-10-10T19:04:04.772Z,11.38
2022-10-10T19:06:31.939Z,11.63
2022-10-10T19:09:00.033Z,13.10
2022-10-10T19:11:29.787Z,10.57
2022-10-10T19:13:59.509Z,9.15
2022-10-10T19:16:27.142Z,10.90
2022-10-10T19:18:58.367Z,11.40
2022-10-10T19:21:26.152Z,10.67
2022-10-10T19:23:53.121Z,8.83
2022-10-10T19:26:20.515Z,10.40
2022-10-10T19:28:47.716Z,10.47
2022-10-10T19:31:17.342Z,9.97
2022-10-10T19:33:45.352Z,8.50
2022-10-10T19:36:13.393Z,6.60
2022-10-10T19:38:42.113Z,10.50
2022-10-10T19:41:12.925Z,12.07
2022-10-10T19:43:44.645Z,9.43
2022-10-10T19:46:14.984Z,10.67
2022-10-10T19:48:42.214Z,10.93
2022-10-10T19:51:15.063Z,9.53
2022-10-10T19:53:43.383Z,8.03
2022-10-10T19:56:24.615Z,9.57
2022-10-10T19:58:56.966Z,9.87
2022-10-10T20:01:29.270Z,10.30
2022-10-10T20:03:57.270Z,14.03
2022-10-10T20:06:24.327Z,10.43
2022-10-10T20:08:51.424Z,9.47
2022-10-10T20:11:20.158Z,8.95
2022-10-10T20:13:49.297Z,12.17
2022-10-10T20:16:16.606Z,13.57
2022-10-10T20:18:44.095Z,11.57
2022-10-10T20:21:17.008Z,8.57
2022-10-10T20:23:45.834Z,6.27
2022-10-10T20:26:15.404Z,8.53
2022-10-10T20:28:42.720Z,11.33
2022-10-10T20:31:21.705Z,9.37
2022-10-10T20:33:51.138Z,11.60
2022-10-10T20:36:19.109Z,14.67
2022-10-10T20:38:52.986Z,9.23
2022-10-10T20:41:20.700Z,8.13
2022-10-10T20:43:48.096Z,9.20
2022-10-10T20:46:15.547Z,9.13
2022-10-10T20:48:42.566Z,11.23
2022-10-10T20:51:11.784Z,9.52
2022-10-10T20:53:41.969Z,9.67
2022-10-10T20:56:12.019Z,11.53
2022-10-10T20:58:40.198Z,12.40
2022-10-10T21:01:15.720Z,10.63
2022-10-10T21:03:44.326Z,8.87
2022-10-10T21:06:45.546Z,11.17
2022-10-10T21:09:15.909Z,12.33
2022-10-10T21:11:45.540Z,12.03
2022-10-10T21:14:16.728Z,10.10
2022-10-10T21:16:43.883Z,11.07
2022-10-10T21:19:12.135Z,12.20
2022-10-10T21:21:39.791Z,9.47
2022-10-10T21:24:11.010Z,11.87
2022-10-10T21:26:38.301Z,8.80
2022-10-10T21:29:05.700Z,10.63
2022-10-10T21:31:35.997Z,11.13
2022-10-10T21:34:05.176Z,11.20
2022-10-10T21:36:33.732Z,9.83
2022-10-10T21:39:01.905Z,10.30
2022-10-10T21:41:31.374Z,11.33
2022-10-10T21:43:59.852Z,9.23
2022-10-10T21:46:36.760Z,12.00
2022-10-10T21:49:07.963Z,10.33
2022-10-10T21:51:38.064Z,10.77
2022-10-10T21:54:05.536Z,13.73
2022-10-10T21:56:33.815Z,14.67
2022-10-10T21:59:06.464Z,12.90
2022-10-10T22:01:34.076Z,15.67
2022-10-10T22:04:02.943Z,11.47
2022-10-10T22:06:30.728Z,13.27
2022-10-10T22:09:00.011Z,19.37
2022-10-10T22:11:28.337Z,12.97
2022-10-10T22:13:55.756Z,14.73
2022-10-10T22:16:23.257Z,10.90
2022-10-10T22:18:57.031Z,13.50
2022-10-10T22:21:30.333Z,13.37
2022-10-10T22:24:02.127Z,6.80
2022-10-10T22:26:30.186Z,9.90
2022-10-10T22:28:57.491Z,14.23
2022-10-10T22:31:24.681Z,11.90
2022-10-10T22:33:51.828Z,12.70
2022-10-10T22:36:18.859Z,8.67
2022-10-10T22:38:46.330Z,10.60
2022-10-10T22:41:14.528Z,11.40
2022-10-10T22:43:41.554Z,12.87
2022-10-10T22:46:09.376Z,13.33
2022-10-10T22:48:37.302Z,9.67
2022-10-10T22:51:11.491Z,14.30
2022-10-10T22:53:46.042Z,11.77
2022-10-10T22:56:15.658Z,9.33
2022-10-10T22:58:44.035Z,12.57
2022-10-10T23:01:16.683Z,17.30
2022-10-10T23:03:44.649Z,11.20
2022-10-10T23:06:13.173Z,12.00
2022-10-10T23:08:40.667Z,14.23
2022-10-10T23:11:08.152Z,12.63
2022-10-10T23:13:35.131Z,17.70
2022-10-10T23:16:02.714Z,15.80
2022-10-10T23:18:30.438Z,15.97
2022-10-10T23:20:57.572Z,14.47
2022-10-10T23:23:24.775Z,13.87
2022-10-10T23:25:52.069Z,15.60
2022-10-10T23:28:19.554Z,16.93
2022-10-10T23:30:48.533Z,18.87
2022-10-10T23:33:17.510Z,21.03
2022-10-10T23:35:45.075Z,19.17
2022-10-10T23:38:12.159Z,20.85
2022-10-10T23:40:39.183Z,17.33
2022-10-10T23:43:07.563Z,15.45
2022-10-10T23:45:34.700Z,15.60
2022-10-10T23:48:01.845Z,11.60
2022-10-10T23:50:29.369Z,10.48
2022-10-10T23:52:56.359Z,13.77
2022-10-10T23:55:23.755Z,10.23
2022-10-10T23:57:50.857Z,12.27
